sensor_id;sensor_type;location;lat;lon;timestamp;temperature;humidity
23719;DHT22;43322;52.230;5.702;2022-07-06T00:00:50;12.50;99.90
23719;DHT22;43322;52.230;5.702;2022-07-06T00:03:16;12.50;99.90
23719;DHT22;43322;52.230;5.702;2022-07-06T00:05:43;12.50;99.90
23719;DHT22;43322;52.230;5.702;2022-07-06T00:08:10;12.50;99.90
23719;DHT22;43322;52.230;5.702;2022-07-06T00:10:37;12.50;99.90
23719;DHT22;43322;52.230;5.702;2022-07-06T00:13:05;12.50;99.90
23719;DHT22;43322;52.230;5.702;2022-07-06T00:15:31;12.60;99.90
23719;DHT22;43322;52.230;5.702;2022-07-06T00:17:58;12.60;99.90
23719;DHT22;43322;52.230;5.702;2022-07-06T00:20:25;12.60;99.90
23719;DHT22;43322;52.230;5.702;2022-07-06T00:22:52;12.50;99.90
23719;DHT22;43322;52.230;5.702;2022-07-06T00:25:19;12.40;99.90
23719;DHT22;43322;52.230;5.702;2022-07-06T00:27:45;12.40;99.90
23719;DHT22;43322;52.230;5.702;2022-07-06T00:30:13;12.10;99.90
23719;DHT22;43322;52.230;5.702;2022-07-06T00:32:40;12.10;99.90
23719;DHT22;43322;52.230;5.702;2022-07-06T00:35:07;12.10;99.90
23719;DHT22;43322;52.230;5.702;2022-07-06T00:37:34;12.10;99.90
23719;DHT22;43322;52.230;5.702;2022-07-06T00:40:01;12.10;99.90
23719;DHT22;43322;52.230;5.702;2022-07-06T00:42:28;12.10;99.90
23719;DHT22;43322;52.230;5.702;2022-07-06T00:44:55;12.20;99.90
23719;DHT22;43322;52.230;5.702;2022-07-06T00:47:23;12.20;99.90
23719;DHT22;43322;52.230;5.702;2022-07-06T00:49:50;12.20;99.90
23719;DHT22;43322;52.230;5.702;2022-07-06T00:52:34;12.20;99.90
23719;DHT22;43322;52.230;5.702;2022-07-06T00:55:01;12.20;99.90
23719;DHT22;43322;52.230;5.702;2022-07-06T00:57:28;12.30;99.90
23719;DHT22;43322;52.230;5.702;2022-07-06T00:59:56;12.20;99.90
23719;DHT22;43322;52.230;5.702;2022-07-06T01:02:24;12.20;99.90
23719;DHT22;43322;52.230;5.702;2022-07-06T01:04:51;12.30;99.90
23719;DHT22;43322;52.230;5.702;2022-07-06T01:07:18;12.30;99.90
23719;DHT22;43322;52.230;5.702;2022-07-06T01:09:44;12.40;99.90
23719;DHT22;43322;52.230;5.702;2022-07-06T01:12:11;12.40;99.90
23719;DHT22;43322;52.230;5.702;2022-07-06T01:14:38;12.30;99.90
23719;DHT22;43322;52.230;5.702;2022-07-06T01:17:05;12.20;99.90
23719;DHT22;43322;52.230;5.702;2022-07-06T01:19:34;12.20;99.90
23719;DHT22;43322;52.230;5.702;2022-07-06T01:22:02;12.10;99.90
23719;DHT22;43322;52.230;5.702;2022-07-06T01:24:29;12.00;99.90
23719;DHT22;43322;52.230;5.702;2022-07-06T01:26:56;12.10;99.90
23719;DHT22;43322;52.230;5.702;2022-07-06T01:29:23;12.10;99.90
23719;DHT22;43322;52.230;5.702;2022-07-06T01:31:50;12.10;99.90
23719;DHT22;43322;52.230;5.702;2022-07-06T01:34:18;12.20;99.90
23719;DHT22;43322;52.230;5.702;2022-07-06T01:36:45;12.00;99.90
23719;DHT22;43322;52.230;5.702;2022-07-06T01:39:13;12.00;99.90
23719;DHT22;43322;52.230;5.702;2022-07-06T01:41:40;12.00;99.90
23719;DHT22;43322;52.230;5.702;2022-07-06T01:44:07;12.00;99.90
23719;DHT22;43322;52.230;5.702;2022-07-06T01:46:35;12.00;99.90
23719;DHT22;43322;52.230;5.702;2022-07-06T01:49:02;12.10;99.90
23719;DHT22;43322;52.230;5.702;2022-07-06T01:51:29;12.10;99.90
23719;DHT22;43322;52.230;5.702;2022-07-06T01:53:55;12.10;99.90
23719;DHT22;43322;52.230;5.702;2022-07-06T01:56:24;12.10;99.90
23719;DHT22;43322;52.230;5.702;2022-07-06T01:58:51;12.10;99.90
23719;DHT22;43322;52.230;5.702;2022-07-06T02:01:19;12.20;99.90
23719;DHT22;43322;52.230;5.702;2022-07-06T02:03:47;12.30;99.90
23719;DHT22;43322;52.230;5.702;2022-07-06T02:06:14;12.30;99.90
23719;DHT22;43322;52.230;5.702;2022-07-06T02:08:41;12.30;99.90
23719;DHT22;43322;52.230;5.702;2022-07-06T02:11:09;12.30;99.90
23719;DHT22;43322;52.230;5.702;2022-07-06T02:13:38;12.40;99.90
23719;DHT22;43322;52.230;5.702;2022-07-06T02:16:05;12.40;99.90
23719;DHT22;43322;52.230;5.702;2022-07-06T02:18:32;12.50;99.90
23719;DHT22;43322;52.230;5.702;2022-07-06T02:20:58;12.60;99.90
23719;DHT22;43322;52.230;5.702;2022-07-06T02:23:25;12.50;99.90
23719;DHT22;43322;52.230;5.702;2022-07-06T02:25:52;12.50;99.90
23719;DHT22;43322;52.230;5.702;2022-07-06T02:28:19;12.40;99.90
23719;DHT22;43322;52.230;5.702;2022-07-06T02:30:47;12.40;99.90
23719;DHT22;43322;52.230;5.702;2022-07-06T02:33:14;12.40;99.90
23719;DHT22;43322;52.230;5.702;2022-07-06T02:35:41;12.40;99.90
23719;DHT22;43322;52.230;5.702;2022-07-06T02:38:08;12.30;99.90
23719;DHT22;43322;52.230;5.702;2022-07-06T02:40:35;12.30;99.90
23719;DHT22;43322;52.230;5.702;2022-07-06T02:43:02;12.20;99.90
23719;DHT22;43322;52.230;5.702;2022-07-06T02:45:29;12.20;99.90
23719;DHT22;43322;52.230;5.702;2022-07-06T02:47:57;12.10;99.90
23719;DHT22;43322;52.230;5.702;2022-07-06T02:50:24;12.20;99.90
23719;DHT22;43322;52.230;5.702;2022-07-06T02:52:51;12.10;99.90
23719;DHT22;43322;52.230;5.702;2022-07-06T02:55:18;12.10;99.90
23719;DHT22;43322;52.230;5.702;2022-07-06T02:57:44;12.10;99.90
23719;DHT22;43322;52.230;5.702;2022-07-06T03:00:12;12.00;99.90
23719;DHT22;43322;52.230;5.702;2022-07-06T03:02:39;12.00;99.90
23719;DHT22;43322;52.230;5.702;2022-07-06T03:05:08;11.90;99.90
23719;DHT22;43322;52.230;5.702;2022-07-06T03:07:35;11.80;99.90
23719;DHT22;43322;52.230;5.702;2022-07-06T03:10:02;11.70;99.90
23719;DHT22;43322;52.230;5.702;2022-07-06T03:12:28;11.70;99.90
23719;DHT22;43322;52.230;5.702;2022-07-06T03:14:55;11.70;99.90
23719;DHT22;43322;52.230;5.702;2022-07-06T03:17:22;11.60;99.90
23719;DHT22;43322;52.230;5.702;2022-07-06T03:19:49;11.70;99.90
23719;DHT22;43322;52.230;5.702;2022-07-06T03:22:17;11.50;99.90
23719;DHT22;43322;52.230;5.702;2022-07-06T03:24:44;11.50;99.90
23719;DHT22;43322;52.230;5.702;2022-07-06T03:27:10;11.60;99.90
23719;DHT22;43322;52.230;5.702;2022-07-06T03:29:37;11.60;99.90
23719;DHT22;43322;52.230;5.702;2022-07-06T03:32:04;11.70;99.90
23719;DHT22;43322;52.230;5.702;2022-07-06T03:34:31;11.70;99.90
23719;DHT22;43322;52.230;5.702;2022-07-06T03:36:58;11.70;99.90
23719;DHT22;43322;52.230;5.702;2022-07-06T03:39:26;11.70;99.90
23719;DHT22;43322;52.230;5.702;2022-07-06T03:41:53;11.70;99.90
23719;DHT22;43322;52.230;5.702;2022-07-06T03:44:20;11.80;99.90
23719;DHT22;43322;52.230;5.702;2022-07-06T03:46:47;12.30;99.90
23719;DHT22;43322;52.230;5.702;2022-07-06T03:49:14;11.70;99.90
23719;DHT22;43322;52.230;5.702;2022-07-06T03:51:41;11.70;99.90
23719;DHT22;43322;52.230;5.702;2022-07-06T03:54:08;11.80;99.90
23719;DHT22;43322;52.230;5.702;2022-07-06T03:56:36;11.90;99.90
23719;DHT22;43322;52.230;5.702;2022-07-06T03:59:04;11.90;99.90
23719;DHT22;43322;52.230;5.702;2022-07-06T04:01:31;11.90;99.90
23719;DHT22;43322;52.230;5.702;2022-07-06T04:03:58;11.90;99.90
23719;DHT22;43322;52.230;5.702;2022-07-06T04:06:24;12.00;99.90
23719;DHT22;43322;52.230;5.702;2022-07-06T04:08:51;12.00;99.90
23719;DHT22;43322;52.230;5.702;2022-07-06T04:11:18;12.20;99.90
23719;DHT22;43322;52.230;5.702;2022-07-06T04:13:46;12.10;99.90
23719;DHT22;43322;52.230;5.702;2022-07-06T04:16:13;12.10;99.90
23719;DHT22;43322;52.230;5.702;2022-07-06T04:18:40;12.20;99.90
23719;DHT22;43322;52.230;5.702;2022-07-06T04:21:07;12.30;99.90
23719;DHT22;43322;52.230;5.702;2022-07-06T04:23:33;12.30;99.90
23719;DHT22;43322;52.230;5.702;2022-07-06T04:26:00;12.30;99.90
23719;DHT22;43322;52.230;5.702;2022-07-06T04:28:27;12.30;99.90
23719;DHT22;43322;52.230;5.702;2022-07-06T04:30:55;12.40;99.90
23719;DHT22;43322;52.230;5.702;2022-07-06T04:33:22;12.40;99.90
23719;DHT22;43322;52.230;5.702;2022-07-06T04:35:49;12.40;99.90
23719;DHT22;43322;52.230;5.702;2022-07-06T04:38:16;12.50;99.90
23719;DHT22;43322;52.230;5.702;2022-07-06T04:40:43;12.50;99.90
23719;DHT22;43322;52.230;5.702;2022-07-06T04:43:11;12.50;99.90
23719;DHT22;43322;52.230;5.702;2022-07-06T04:45:38;12.60;99.90
23719;DHT22;43322;52.230;5.702;2022-07-06T04:48:06;12.60;99.90
23719;DHT22;43322;52.230;5.702;2022-07-06T04:50:33;12.70;99.90
23719;DHT22;43322;52.230;5.702;2022-07-06T04:53:00;12.70;99.90
23719;DHT22;43322;52.230;5.702;2022-07-06T04:55:27;12.80;99.90
23719;DHT22;43322;52.230;5.702;2022-07-06T04:57:53;12.80;99.90
23719;DHT22;43322;52.230;5.702;2022-07-06T05:00:20;12.90;99.90
23719;DHT22;43322;52.230;5.702;2022-07-06T05:02:47;13.40;99.90
23719;DHT22;43322;52.230;5.702;2022-07-06T05:05:16;13.00;99.90
23719;DHT22;43322;52.230;5.702;2022-07-06T05:07:43;13.10;99.90
23719;DHT22;43322;52.230;5.702;2022-07-06T05:10:10;13.20;99.90
23719;DHT22;43322;52.230;5.702;2022-07-06T05:12:38;13.20;99.90
23719;DHT22;43322;52.230;5.702;2022-07-06T05:15:06;13.30;99.90
23719;DHT22;43322;52.230;5.702;2022-07-06T05:17:33;13.30;99.90
23719;DHT22;43322;52.230;5.702;2022-07-06T05:20:00;13.40;99.90
23719;DHT22;43322;52.230;5.702;2022-07-06T05:22:28;13.40;99.90
23719;DHT22;43322;52.230;5.702;2022-07-06T05:24:55;13.50;99.90
23719;DHT22;43322;52.230;5.702;2022-07-06T05:27:22;13.50;99.90
23719;DHT22;43322;52.230;5.702;2022-07-06T05:29:49;13.60;99.90
23719;DHT22;43322;52.230;5.702;2022-07-06T05:32:16;13.50;99.90
23719;DHT22;43322;52.230;5.702;2022-07-06T05:34:43;13.50;99.90
23719;DHT22;43322;52.230;5.702;2022-07-06T05:37:09;13.50;99.90
23719;DHT22;43322;52.230;5.702;2022-07-06T05:39:38;13.60;99.90
23719;DHT22;43322;52.230;5.702;2022-07-06T05:42:04;13.50;99.90
23719;DHT22;43322;52.230;5.702;2022-07-06T05:44:32;13.60;99.90
23719;DHT22;43322;52.230;5.702;2022-07-06T05:46:59;13.60;99.90
23719;DHT22;43322;52.230;5.702;2022-07-06T05:49:39;13.70;99.90
23719;DHT22;43322;52.230;5.702;2022-07-06T05:52:23;13.80;99.90
23719;DHT22;43322;52.230;5.702;2022-07-06T05:54:52;13.90;99.90
23719;DHT22;43322;52.230;5.702;2022-07-06T05:57:18;14.00;99.90
23719;DHT22;43322;52.230;5.702;2022-07-06T05:59:45;14.00;99.90
23719;DHT22;43322;52.230;5.702;2022-07-06T06:02:12;14.10;99.90
23719;DHT22;43322;52.230;5.702;2022-07-06T06:04:38;14.10;99.90
23719;DHT22;43322;52.230;5.702;2022-07-06T06:07:05;14.20;99.90
23719;DHT22;43322;52.230;5.702;2022-07-06T06:09:32;14.20;99.90
23719;DHT22;43322;52.230;5.702;2022-07-06T06:12:00;14.30;99.90
23719;DHT22;43322;52.230;5.702;2022-07-06T06:14:27;14.40;99.90
23719;DHT22;43322;52.230;5.702;2022-07-06T06:16:53;14.50;99.90
23719;DHT22;43322;52.230;5.702;2022-07-06T06:19:20;14.60;99.90
23719;DHT22;43322;52.230;5.702;2022-07-06T06:21:47;14.90;99.90
23719;DHT22;43322;52.230;5.702;2022-07-06T06:24:14;14.80;99.90
23719;DHT22;43322;52.230;5.702;2022-07-06T06:26:40;15.00;99.90
23719;DHT22;43322;52.230;5.702;2022-07-06T06:29:09;15.10;99.90
23719;DHT22;43322;52.230;5.702;2022-07-06T06:31:36;15.30;99.90
23719;DHT22;43322;52.230;5.702;2022-07-06T06:34:02;15.30;99.90
23719;DHT22;43322;52.230;5.702;2022-07-06T06:36:29;15.50;99.90
23719;DHT22;43322;52.230;5.702;2022-07-06T06:38:56;15.30;99.90
23719;DHT22;43322;52.230;5.702;2022-07-06T06:41:23;15.30;99.90
23719;DHT22;43322;52.230;5.702;2022-07-06T06:43:49;15.40;99.90
23719;DHT22;43322;52.230;5.702;2022-07-06T06:46:17;15.30;99.90
23719;DHT22;43322;52.230;5.702;2022-07-06T06:48:44;15.30;99.90
23719;DHT22;43322;52.230;5.702;2022-07-06T06:51:11;15.20;99.90
23719;DHT22;43322;52.230;5.702;2022-07-06T06:53:37;15.20;99.90
23719;DHT22;43322;52.230;5.702;2022-07-06T06:56:04;15.20;99.90
23719;DHT22;43322;52.230;5.702;2022-07-06T06:58:31;15.20;99.90
23719;DHT22;43322;52.230;5.702;2022-07-06T07:00:58;15.20;99.90
23719;DHT22;43322;52.230;5.702;2022-07-06T07:03:26;15.20;99.90
23719;DHT22;43322;52.230;5.702;2022-07-06T07:05:53;15.30;99.90
23719;DHT22;43322;52.230;5.702;2022-07-06T07:08:20;15.50;99.90
23719;DHT22;43322;52.230;5.702;2022-07-06T07:10:47;15.80;99.90
23719;DHT22;43322;52.230;5.702;2022-07-06T07:13:14;15.70;99.90
23719;DHT22;43322;52.230;5.702;2022-07-06T07:15:41;15.80;99.90
23719;DHT22;43322;52.230;5.702;2022-07-06T07:18:08;15.80;99.90
23719;DHT22;43322;52.230;5.702;2022-07-06T07:20:36;16.00;99.90
23719;DHT22;43322;52.230;5.702;2022-07-06T07:23:03;16.10;99.90
23719;DHT22;43322;52.230;5.702;2022-07-06T07:25:29;16.20;99.90
23719;DHT22;43322;52.230;5.702;2022-07-06T07:27:56;16.30;99.90
23719;DHT22;43322;52.230;5.702;2022-07-06T07:30:23;16.60;99.90
23719;DHT22;43322;52.230;5.702;2022-07-06T07:32:50;16.70;99.90
23719;DHT22;43322;52.230;5.702;2022-07-06T07:35:17;16.70;99.90
23719;DHT22;43322;52.230;5.702;2022-07-06T07:37:45;16.40;99.90
23719;DHT22;43322;52.230;5.702;2022-07-06T07:40:11;16.10;99.90
23719;DHT22;43322;52.230;5.702;2022-07-06T07:42:38;15.80;99.90
23719;DHT22;43322;52.230;5.702;2022-07-06T07:45:06;16.30;99.90
23719;DHT22;43322;52.230;5.702;2022-07-06T07:47:33;15.90;99.90
23719;DHT22;43322;52.230;5.702;2022-07-06T07:50:00;16.10;99.90
23719;DHT22;43322;52.230;5.702;2022-07-06T07:52:27;16.40;99.90
23719;DHT22;43322;52.230;5.702;2022-07-06T07:54:55;16.80;99.90
23719;DHT22;43322;52.230;5.702;2022-07-06T07:57:22;17.10;99.90
23719;DHT22;43322;52.230;5.702;2022-07-06T07:59:48;16.90;99.90
23719;DHT22;43322;52.230;5.702;2022-07-06T08:02:15;17.00;99.90
23719;DHT22;43322;52.230;5.702;2022-07-06T08:04:42;16.90;99.90
23719;DHT22;43322;52.230;5.702;2022-07-06T08:07:09;17.30;99.90
23719;DHT22;43322;52.230;5.702;2022-07-06T08:09:35;17.20;99.90
23719;DHT22;43322;52.230;5.702;2022-07-06T08:12:04;17.20;99.90
23719;DHT22;43322;52.230;5.702;2022-07-06T08:14:31;17.60;99.90
23719;DHT22;43322;52.230;5.702;2022-07-06T08:16:58;17.90;99.90
23719;DHT22;43322;52.230;5.702;2022-07-06T08:19:24;17.90;99.90
23719;DHT22;43322;52.230;5.702;2022-07-06T08:21:51;17.70;99.90
23719;DHT22;43322;52.230;5.702;2022-07-06T08:24:18;17.80;99.90
23719;DHT22;43322;52.230;5.702;2022-07-06T08:26:45;18.10;99.90
23719;DHT22;43322;52.230;5.702;2022-07-06T08:29:13;18.50;99.90
23719;DHT22;43322;52.230;5.702;2022-07-06T08:31:40;18.40;99.90
23719;DHT22;43322;52.230;5.702;2022-07-06T08:34:07;18.10;99.90
23719;DHT22;43322;52.230;5.702;2022-07-06T08:36:34;17.70;99.90
23719;DHT22;43322;52.230;5.702;2022-07-06T08:39:00;17.60;99.90
23719;DHT22;43322;52.230;5.702;2022-07-06T08:41:29;17.70;99.90
23719;DHT22;43322;52.230;5.702;2022-07-06T08:43:56;18.00;99.90
23719;DHT22;43322;52.230;5.702;2022-07-06T08:46:27;18.20;99.90
23719;DHT22;43322;52.230;5.702;2022-07-06T08:48:55;18.90;99.90
23719;DHT22;43322;52.230;5.702;2022-07-06T08:51:24;18.80;99.90
23719;DHT22;43322;52.230;5.702;2022-07-06T08:53:51;19.10;99.90
23719;DHT22;43322;52.230;5.702;2022-07-06T08:56:19;19.10;99.90
23719;DHT22;43322;52.230;5.702;2022-07-06T08:58:46;18.60;99.90
23719;DHT22;43322;52.230;5.702;2022-07-06T09:01:14;18.50;99.90
23719;DHT22;43322;52.230;5.702;2022-07-06T09:03:43;18.50;99.90
23719;DHT22;43322;52.230;5.702;2022-07-06T09:06:14;18.50;99.90
23719;DHT22;43322;52.230;5.702;2022-07-06T09:08:43;17.90;99.90
23719;DHT22;43322;52.230;5.702;2022-07-06T09:11:11;18.10;99.90
23719;DHT22;43322;52.230;5.702;2022-07-06T09:13:37;18.10;99.90
23719;DHT22;43322;52.230;5.702;2022-07-06T09:16:11;18.30;99.90
23719;DHT22;43322;52.230;5.702;2022-07-06T09:18:39;18.40;99.90
23719;DHT22;43322;52.230;5.702;2022-07-06T09:21:09;18.60;99.90
23719;DHT22;43322;52.230;5.702;2022-07-06T09:23:37;18.60;99.90
23719;DHT22;43322;52.230;5.702;2022-07-06T09:26:05;18.40;99.90
23719;DHT22;43322;52.230;5.702;2022-07-06T09:28:41;18.50;99.90
23719;DHT22;43322;52.230;5.702;2022-07-06T09:31:09;18.70;99.90
23719;DHT22;43322;52.230;5.702;2022-07-06T09:33:36;19.00;99.90
23719;DHT22;43322;52.230;5.702;2022-07-06T09:36:04;19.30;99.90
23719;DHT22;43322;52.230;5.702;2022-07-06T09:38:32;19.70;99.90
23719;DHT22;43322;52.230;5.702;2022-07-06T09:40:59;19.60;99.90
23719;DHT22;43322;52.230;5.702;2022-07-06T09:43:28;19.70;99.90
23719;DHT22;43322;52.230;5.702;2022-07-06T09:45:56;20.00;99.90
23719;DHT22;43322;52.230;5.702;2022-07-06T09:48:24;20.10;99.90
23719;DHT22;43322;52.230;5.702;2022-07-06T09:50:52;20.10;99.90
23719;DHT22;43322;52.230;5.702;2022-07-06T09:53:20;19.50;99.90
23719;DHT22;43322;52.230;5.702;2022-07-06T09:55:50;19.50;99.90
23719;DHT22;43322;52.230;5.702;2022-07-06T09:58:18;19.60;99.90
23719;DHT22;43322;52.230;5.702;2022-07-06T10:00:46;19.90;99.90
23719;DHT22;43322;52.230;5.702;2022-07-06T10:03:14;19.80;99.90
23719;DHT22;43322;52.230;5.702;2022-07-06T10:05:43;20.20;99.90
23719;DHT22;43322;52.230;5.702;2022-07-06T10:08:11;20.30;99.90
23719;DHT22;43322;52.230;5.702;2022-07-06T10:10:39;20.30;99.90
23719;DHT22;43322;52.230;5.702;2022-07-06T10:13:08;20.60;99.90
23719;DHT22;43322;52.230;5.702;2022-07-06T10:15:36;20.80;99.90
23719;DHT22;43322;52.230;5.702;2022-07-06T10:18:05;21.30;99.90
23719;DHT22;43322;52.230;5.702;2022-07-06T10:20:33;21.30;99.90
23719;DHT22;43322;52.230;5.702;2022-07-06T10:23:03;20.70;99.90
23719;DHT22;43322;52.230;5.702;2022-07-06T10:25:32;20.50;99.90
23719;DHT22;43322;52.230;5.702;2022-07-06T10:27:59;20.20;99.90
23719;DHT22;43322;52.230;5.702;2022-07-06T10:30:29;20.00;99.90
23719;DHT22;43322;52.230;5.702;2022-07-06T10:32:57;19.90;99.90
23719;DHT22;43322;52.230;5.702;2022-07-06T10:35:24;20.60;99.90
23719;DHT22;43322;52.230;5.702;2022-07-06T10:38:03;20.90;99.90
23719;DHT22;43322;52.230;5.702;2022-07-06T10:40:35;21.60;99.90
23719;DHT22;43322;52.230;5.702;2022-07-06T10:43:19;22.30;99.90
23719;DHT22;43322;52.230;5.702;2022-07-06T10:45:53;22.70;99.90
23719;DHT22;43322;52.230;5.702;2022-07-06T10:48:20;22.40;99.90
23719;DHT22;43322;52.230;5.702;2022-07-06T10:50:50;22.00;99.90
23719;DHT22;43322;52.230;5.702;2022-07-06T10:53:20;22.60;99.90
23719;DHT22;43322;52.230;5.702;2022-07-06T10:55:50;23.50;99.90
23719;DHT22;43322;52.230;5.702;2022-07-06T10:58:35;24.50;99.90
23719;DHT22;43322;52.230;5.702;2022-07-06T11:01:04;23.30;99.90
23719;DHT22;43322;52.230;5.702;2022-07-06T11:03:33;22.50;99.90
23719;DHT22;43322;52.230;5.702;2022-07-06T11:06:00;22.10;99.90
23719;DHT22;43322;52.230;5.702;2022-07-06T11:08:50;23.00;99.90
23719;DHT22;43322;52.230;5.702;2022-07-06T11:11:18;23.20;99.90
23719;DHT22;43322;52.230;5.702;2022-07-06T11:13:51;23.40;99.90
23719;DHT22;43322;52.230;5.702;2022-07-06T11:16:21;23.70;99.90
23719;DHT22;43322;52.230;5.702;2022-07-06T11:18:50;23.90;99.90
23719;DHT22;43322;52.230;5.702;2022-07-06T11:21:33;23.00;99.90
23719;DHT22;43322;52.230;5.702;2022-07-06T11:24:01;22.70;99.90
23719;DHT22;43322;52.230;5.702;2022-07-06T11:26:28;23.10;99.90
23719;DHT22;43322;52.230;5.702;2022-07-06T11:28:58;24.20;99.90
23719;DHT22;43322;52.230;5.702;2022-07-06T11:31:27;24.40;99.90
23719;DHT22;43322;52.230;5.702;2022-07-06T11:33:54;23.80;99.90
23719;DHT22;43322;52.230;5.702;2022-07-06T11:36:22;24.30;99.90
23719;DHT22;43322;52.230;5.702;2022-07-06T11:38:50;25.00;99.90
23719;DHT22;43322;52.230;5.702;2022-07-06T11:41:17;25.00;99.90
23719;DHT22;43322;52.230;5.702;2022-07-06T11:43:46;24.60;99.90
23719;DHT22;43322;52.230;5.702;2022-07-06T11:46:23;24.80;99.90
23719;DHT22;43322;52.230;5.702;2022-07-06T11:48:53;25.00;99.90
23719;DHT22;43322;52.230;5.702;2022-07-06T11:51:21;25.40;99.90
23719;DHT22;43322;52.230;5.702;2022-07-06T11:53:49;26.00;99.90
23719;DHT22;43322;52.230;5.702;2022-07-06T11:56:16;26.70;99.90
23719;DHT22;43322;52.230;5.702;2022-07-06T11:58:45;26.90;99.90
23719;DHT22;43322;52.230;5.702;2022-07-06T12:01:13;27.60;99.90
23719;DHT22;43322;52.230;5.702;2022-07-06T12:03:41;27.00;99.90
23719;DHT22;43322;52.230;5.702;2022-07-06T12:06:16;25.50;99.90
23719;DHT22;43322;52.230;5.702;2022-07-06T12:08:45;25.90;99.90
23719;DHT22;43322;52.230;5.702;2022-07-06T12:11:18;26.40;99.90
23719;DHT22;43322;52.230;5.702;2022-07-06T12:13:45;26.80;99.90
23719;DHT22;43322;52.230;5.702;2022-07-06T12:16:13;25.50;99.90
23719;DHT22;43322;52.230;5.702;2022-07-06T12:18:41;25.70;99.90
23719;DHT22;43322;52.230;5.702;2022-07-06T12:21:09;26.40;99.90
23719;DHT22;43322;52.230;5.702;2022-07-06T12:23:47;26.90;99.90
23719;DHT22;43322;52.230;5.702;2022-07-06T12:26:16;27.10;99.90
23719;DHT22;43322;52.230;5.702;2022-07-06T12:28:43;26.90;99.90
23719;DHT22;43322;52.230;5.702;2022-07-06T12:31:11;25.60;99.90
23719;DHT22;43322;52.230;5.702;2022-07-06T12:33:38;24.90;99.90
23719;DHT22;43322;52.230;5.702;2022-07-06T12:36:12;25.60;99.90
23719;DHT22;43322;52.230;5.702;2022-07-06T12:38:46;25.70;99.90
23719;DHT22;43322;52.230;5.702;2022-07-06T12:41:31;24.40;99.90
23719;DHT22;43322;52.230;5.702;2022-07-06T12:44:03;24.70;99.90
23719;DHT22;43322;52.230;5.702;2022-07-06T12:46:31;24.60;99.90
23719;DHT22;43322;52.230;5.702;2022-07-06T12:49:00;24.40;99.90
23719;DHT22;43322;52.230;5.702;2022-07-06T12:51:27;24.70;99.90
23719;DHT22;43322;52.230;5.702;2022-07-06T12:54:13;24.50;99.90
23719;DHT22;43322;52.230;5.702;2022-07-06T12:57:04;25.90;99.90
23719;DHT22;43322;52.230;5.702;2022-07-06T12:59:33;25.80;99.90
23719;DHT22;43322;52.230;5.702;2022-07-06T13:02:00;25.20;99.90
23719;DHT22;43322;52.230;5.702;2022-07-06T13:04:29;24.80;99.90
23719;DHT22;43322;52.230;5.702;2022-07-06T13:06:57;25.00;99.90
23719;DHT22;43322;52.230;5.702;2022-07-06T13:09:25;25.00;99.90
23719;DHT22;43322;52.230;5.702;2022-07-06T13:11:52;24.80;99.90
23719;DHT22;43322;52.230;5.702;2022-07-06T13:14:19;25.70;99.90
23719;DHT22;43322;52.230;5.702;2022-07-06T13:16:47;25.50;99.90
23719;DHT22;43322;52.230;5.702;2022-07-06T13:19:14;24.90;99.90
23719;DHT22;43322;52.230;5.702;2022-07-06T13:21:41;24.10;99.90
23719;DHT22;43322;52.230;5.702;2022-07-06T13:24:10;23.80;99.90
23719;DHT22;43322;52.230;5.702;2022-07-06T13:26:38;23.50;99.90
23719;DHT22;43322;52.230;5.702;2022-07-06T13:29:05;23.70;99.90
23719;DHT22;43322;52.230;5.702;2022-07-06T13:31:32;23.60;99.90
23719;DHT22;43322;52.230;5.702;2022-07-06T13:33:59;23.70;99.90
23719;DHT22;43322;52.230;5.702;2022-07-06T13:36:26;23.50;99.90
23719;DHT22;43322;52.230;5.702;2022-07-06T13:38:53;23.60;99.90
23719;DHT22;43322;52.230;5.702;2022-07-06T13:41:19;23.30;99.90
23719;DHT22;43322;52.230;5.702;2022-07-06T13:43:47;23.90;99.90
23719;DHT22;43322;52.230;5.702;2022-07-06T13:46:14;24.10;99.90
23719;DHT22;43322;52.230;5.702;2022-07-06T13:48:42;23.90;99.90
23719;DHT22;43322;52.230;5.702;2022-07-06T13:51:09;24.30;99.90
23719;DHT22;43322;52.230;5.702;2022-07-06T13:53:36;24.30;99.90
23719;DHT22;43322;52.230;5.702;2022-07-06T13:56:04;24.40;99.90
23719;DHT22;43322;52.230;5.702;2022-07-06T13:58:30;24.60;99.90
23719;DHT22;43322;52.230;5.702;2022-07-06T14:00:58;24.70;99.90
23719;DHT22;43322;52.230;5.702;2022-07-06T14:03:25;24.60;99.90
23719;DHT22;43322;52.230;5.702;2022-07-06T14:05:55;24.30;99.90
23719;DHT22;43322;52.230;5.702;2022-07-06T14:08:23;24.40;99.90
23719;DHT22;43322;52.230;5.702;2022-07-06T14:10:50;24.30;99.90
23719;DHT22;43322;52.230;5.702;2022-07-06T14:13:16;23.90;99.90
23719;DHT22;43322;52.230;5.702;2022-07-06T14:15:43;23.60;99.90
23719;DHT22;43322;52.230;5.702;2022-07-06T14:18:11;23.30;99.90
23719;DHT22;43322;52.230;5.702;2022-07-06T14:20:38;23.00;99.90
23719;DHT22;43322;52.230;5.702;2022-07-06T14:23:05;22.80;99.90
23719;DHT22;43322;52.230;5.702;2022-07-06T14:25:32;22.80;99.90
23719;DHT22;43322;52.230;5.702;2022-07-06T14:27:59;22.60;99.90
23719;DHT22;43322;52.230;5.702;2022-07-06T14:30:27;22.20;99.90
23719;DHT22;43322;52.230;5.702;2022-07-06T14:32:54;22.10;99.90
23719;DHT22;43322;52.230;5.702;2022-07-06T14:35:22;22.00;99.90
23719;DHT22;43322;52.230;5.702;2022-07-06T14:37:50;21.90;99.90
23719;DHT22;43322;52.230;5.702;2022-07-06T14:40:17;21.70;99.90
23719;DHT22;43322;52.230;5.702;2022-07-06T14:42:44;21.70;99.90
23719;DHT22;43322;52.230;5.702;2022-07-06T14:45:11;21.60;99.90
23719;DHT22;43322;52.230;5.702;2022-07-06T14:47:37;21.50;99.90
23719;DHT22;43322;52.230;5.702;2022-07-06T14:50:05;21.20;99.90
23719;DHT22;43322;52.230;5.702;2022-07-06T14:52:33;21.20;99.90
23719;DHT22;43322;52.230;5.702;2022-07-06T14:55:00;21.20;99.90
23719;DHT22;43322;52.230;5.702;2022-07-06T14:57:27;21.30;99.90
23719;DHT22;43322;52.230;5.702;2022-07-06T14:59:53;21.30;99.90
23719;DHT22;43322;52.230;5.702;2022-07-06T15:02:20;21.30;99.90
23719;DHT22;43322;52.230;5.702;2022-07-06T15:04:47;21.40;99.90
23719;DHT22;43322;52.230;5.702;2022-07-06T15:07:13;21.50;99.90
23719;DHT22;43322;52.230;5.702;2022-07-06T15:09:42;21.20;99.90
23719;DHT22;43322;52.230;5.702;2022-07-06T15:12:09;21.10;99.90
23719;DHT22;43322;52.230;5.702;2022-07-06T15:14:36;20.90;99.90
23719;DHT22;43322;52.230;5.702;2022-07-06T15:17:03;20.90;99.90
23719;DHT22;43322;52.230;5.702;2022-07-06T15:19:30;21.10;99.90
23719;DHT22;43322;52.230;5.702;2022-07-06T15:21:57;21.30;99.90
23719;DHT22;43322;52.230;5.702;2022-07-06T15:24:24;21.10;99.90
23719;DHT22;43322;52.230;5.702;2022-07-06T15:26:52;20.90;99.90
23719;DHT22;43322;52.230;5.702;2022-07-06T15:29:19;20.70;99.90
23719;DHT22;43322;52.230;5.702;2022-07-06T15:31:46;20.50;99.90
23719;DHT22;43322;52.230;5.702;2022-07-06T15:34:13;20.40;99.90